Sargodha Weather



Sargodha's Current Weather

Temprature 39.3o scattered clouds

scattered clouds

Rain: 0 %

Min Temprature39.3o
Max Temprature39.3o
Humidity15
Wind Speed0.73 m/h
Sun Rise05:17:10
Sun Set18:54:27
Current Time: 08-May-2021 14:57:21
Lat/Lon: 32.0836, 72.6711




Sargodha's Geo Location



Sargodha's Weather Forecast

Time Overall Temp Min Temp Max Temp Humidity Wind Speed Rain
08-May-2021 (Sat)
17:00:00 scattered clouds 39.170 38.940 39.170 15 1.38 m/h 0 %
20:00:00 few clouds 35.330 33.350 35.330 20 1.89 m/h 0 %
23:00:00 few clouds 30.440 30.440 30.440 29 3.86 m/h 0 %
09-May-2021 (Sun)
02:00:00 scattered clouds 28.020 28.020 28.020 35 2.06 m/h 0 %
05:00:00 scattered clouds 26.860 26.860 26.860 38 2.63 m/h 0 %
08:00:00 few clouds 32.540 32.540 32.540 26 4.18 m/h 0 %
11:00:00 scattered clouds 38.260 38.260 38.260 17 3.97 m/h 0 %
14:00:00 broken clouds 41.360 41.360 41.360 12 1.87 m/h 0 %
17:00:00 scattered clouds 41.080 41.080 41.080 10 2.59 m/h 0 %
20:00:00 scattered clouds 29.930 29.930 29.930 33 9.14 m/h 0 %
23:00:00 scattered clouds 27.630 27.630 27.630 41 3.86 m/h 0 %
10-May-2021 (Mon)
02:00:00 scattered clouds 25.940 25.940 25.940 45 2.8 m/h 0 %
05:00:00 scattered clouds 24.480 24.480 24.480 51 2.99 m/h 0 %
08:00:00 broken clouds 30.640 30.640 30.640 34 4.08 m/h 0 %
11:00:00 broken clouds 37.520 37.520 37.520 19 4.49 m/h 0 %
14:00:00 broken clouds 40.460 40.460 40.460 14 2.83 m/h 0 %
17:00:00 broken clouds 40.530 40.530 40.530 12 0.71 m/h 0 %
20:00:00 broken clouds 34.790 34.790 34.790 18 3.67 m/h 0 %
23:00:00 scattered clouds 31.610 31.610 31.610 23 3.26 m/h 0 %
11-May-2021 (Tue)
02:00:00 clear sky 29.380 29.380 29.380 25 1.84 m/h 0 %
05:00:00 clear sky 27.280 27.280 27.280 29 2.06 m/h 0 %
08:00:00 clear sky 33.350 33.350 33.350 21 3.03 m/h 0 %
11:00:00 clear sky 39.510 39.510 39.510 14 2.41 m/h 0 %
14:00:00 clear sky 42.770 42.770 42.770 10 2.51 m/h 0 %
17:00:00 few clouds 42.570 42.570 42.570 9 2.55 m/h 0 %
20:00:00 scattered clouds 31.770 31.770 31.770 26 7.49 m/h 0 %
23:00:00 light rain 30.800 30.800 30.800 30 8.18 m/h 12 %
12-May-2021 (Wed)
02:00:00 overcast clouds 27.980 27.980 27.980 36 4.68 m/h 0 %
05:00:00 overcast clouds 27.130 27.130 27.130 40 2.56 m/h 0 %
08:00:00 overcast clouds 31.250 31.250 31.250 30 4.16 m/h 0 %
11:00:00 broken clouds 35.800 35.800 35.800 23 5.35 m/h 0 %
14:00:00 scattered clouds 38.060 38.060 38.060 19 3.61 m/h 0 %
17:00:00 light rain 31.110 31.110 31.110 36 12.29 m/h 83 %
20:00:00 moderate rain 23.480 23.480 23.480 66 6.05 m/h 343 %
23:00:00 light rain 23.450 23.450 23.450 65 3.27 m/h 13 %
13-May-2021 (Thu)
02:00:00 broken clouds 23.250 23.250 23.250 66 2.27 m/h 0 %
05:00:00 scattered clouds 22.820 22.820 22.820 66 2.31 m/h 0 %
08:00:00 scattered clouds 27.020 27.020 27.020 49 4.19 m/h 0 %
11:00:00 few clouds 32.440 32.440 32.440 31 3.48 m/h 0 %
14:00:00 few clouds 34.270 34.270 34.270 26 5.08 m/h 0 %

Famous Cities (60)